sensor_id;sensor_type;location;lat;lon;timestamp;P1;durP1;ratioP1;P2;durP2;ratioP2
37997;SDS011;24079;51.824;4.682;2024-01-15T00:00:37;15.75;;;2.65;;
37997;SDS011;24079;51.824;4.682;2024-01-15T00:03:04;17.08;;;2.35;;
37997;SDS011;24079;51.824;4.682;2024-01-15T00:05:29;13.65;;;2.00;;
37997;SDS011;24079;51.824;4.682;2024-01-15T00:07:55;18.33;;;2.40;;
37997;SDS011;24079;51.824;4.682;2024-01-15T00:10:21;17.02;;;2.30;;
37997;SDS011;24079;51.824;4.682;2024-01-15T00:12:46;15.05;;;2.20;;
37997;SDS011;24079;51.824;4.682;2024-01-15T00:15:12;12.68;;;1.90;;
37997;SDS011;24079;51.824;4.682;2024-01-15T00:17:38;22.10;;;2.72;;
37997;SDS011;24079;51.824;4.682;2024-01-15T00:20:04;13.48;;;2.08;;
37997;SDS011;24079;51.824;4.682;2024-01-15T00:22:30;13.32;;;2.83;;
37997;SDS011;24079;51.824;4.682;2024-01-15T00:24:56;14.38;;;2.45;;
37997;SDS011;24079;51.824;4.682;2024-01-15T00:27:22;23.40;;;2.00;;
37997;SDS011;24079;51.824;4.682;2024-01-15T00:29:48;22.42;;;2.50;;
37997;SDS011;24079;51.824;4.682;2024-01-15T00:32:15;14.48;;;1.90;;
37997;SDS011;24079;51.824;4.682;2024-01-15T00:34:41;16.23;;;1.80;;
37997;SDS011;24079;51.824;4.682;2024-01-15T00:37:07;12.32;;;2.05;;
37997;SDS011;24079;51.824;4.682;2024-01-15T00:39:32;14.63;;;2.00;;
37997;SDS011;24079;51.824;4.682;2024-01-15T00:41:58;16.50;;;1.95;;
37997;SDS011;24079;51.824;4.682;2024-01-15T00:44:24;15.00;;;1.85;;
37997;SDS011;24079;51.824;4.682;2024-01-15T00:46:49;12.23;;;1.85;;
37997;SDS011;24079;51.824;4.682;2024-01-15T00:49:15;13.93;;;1.98;;
37997;SDS011;24079;51.824;4.682;2024-01-15T00:51:41;14.50;;;2.38;;
37997;SDS011;24079;51.824;4.682;2024-01-15T00:54:07;11.07;;;1.80;;
37997;SDS011;24079;51.824;4.682;2024-01-15T00:56:32;9.57;;;1.85;;
37997;SDS011;24079;51.824;4.682;2024-01-15T00:58:58;11.93;;;1.70;;
37997;SDS011;24079;51.824;4.682;2024-01-15T01:01:24;11.07;;;1.50;;
37997;SDS011;24079;51.824;4.682;2024-01-15T01:03:50;9.63;;;1.65;;
37997;SDS011;24079;51.824;4.682;2024-01-15T01:06:15;17.00;;;2.25;;
37997;SDS011;24079;51.824;4.682;2024-01-15T01:08:41;15.05;;;2.15;;
37997;SDS011;24079;51.824;4.682;2024-01-15T01:11:07;16.98;;;2.03;;
37997;SDS011;24079;51.824;4.682;2024-01-15T01:13:37;11.95;;;1.75;;
37997;SDS011;24079;51.824;4.682;2024-01-15T01:16:03;13.15;;;2.67;;
37997;SDS011;24079;51.824;4.682;2024-01-15T01:18:30;15.02;;;1.77;;
37997;SDS011;24079;51.824;4.682;2024-01-15T01:20:56;15.88;;;2.10;;
37997;SDS011;24079;51.824;4.682;2024-01-15T01:23:21;14.38;;;1.85;;
37997;SDS011;24079;51.824;4.682;2024-01-15T01:25:47;17.77;;;2.63;;
37997;SDS011;24079;51.824;4.682;2024-01-15T01:28:13;12.18;;;1.65;;
37997;SDS011;24079;51.824;4.682;2024-01-15T01:30:38;13.98;;;2.38;;
37997;SDS011;24079;51.824;4.682;2024-01-15T01:33:04;12.88;;;2.05;;
37997;SDS011;24079;51.824;4.682;2024-01-15T01:35:30;11.10;;;1.58;;
37997;SDS011;24079;51.824;4.682;2024-01-15T01:37:55;19.05;;;2.38;;
37997;SDS011;24079;51.824;4.682;2024-01-15T01:40:21;17.92;;;2.08;;
37997;SDS011;24079;51.824;4.682;2024-01-15T01:42:47;14.43;;;1.98;;
37997;SDS011;24079;51.824;4.682;2024-01-15T01:45:13;12.75;;;1.90;;
37997;SDS011;24079;51.824;4.682;2024-01-15T01:47:39;12.82;;;1.80;;
37997;SDS011;24079;51.824;4.682;2024-01-15T01:50:05;19.20;;;2.13;;
37997;SDS011;24079;51.824;4.682;2024-01-15T01:52:31;15.32;;;1.85;;
37997;SDS011;24079;51.824;4.682;2024-01-15T01:54:58;16.50;;;2.40;;
37997;SDS011;24079;51.824;4.682;2024-01-15T01:57:25;11.35;;;1.50;;
37997;SDS011;24079;51.824;4.682;2024-01-15T01:59:51;17.33;;;2.85;;
37997;SDS011;24079;51.824;4.682;2024-01-15T02:02:16;27.25;;;2.45;;
37997;SDS011;24079;51.824;4.682;2024-01-15T02:04:43;10.90;;;1.50;;
37997;SDS011;24079;51.824;4.682;2024-01-15T02:07:09;17.83;;;2.35;;
37997;SDS011;24079;51.824;4.682;2024-01-15T02:09:36;16.85;;;2.20;;
37997;SDS011;24079;51.824;4.682;2024-01-15T02:12:01;16.77;;;2.03;;
37997;SDS011;24079;51.824;4.682;2024-01-15T02:14:27;11.73;;;1.80;;
37997;SDS011;24079;51.824;4.682;2024-01-15T02:16:53;16.30;;;2.10;;
37997;SDS011;24079;51.824;4.682;2024-01-15T02:19:18;8.65;;;1.35;;
37997;SDS011;24079;51.824;4.682;2024-01-15T02:21:44;15.85;;;2.30;;
37997;SDS011;24079;51.824;4.682;2024-01-15T02:24:10;13.98;;;1.60;;
37997;SDS011;24079;51.824;4.682;2024-01-15T02:26:36;9.98;;;2.08;;
37997;SDS011;24079;51.824;4.682;2024-01-15T02:29:03;18.33;;;2.88;;
37997;SDS011;24079;51.824;4.682;2024-01-15T02:31:29;15.60;;;1.70;;
37997;SDS011;24079;51.824;4.682;2024-01-15T02:33:55;10.68;;;1.52;;
37997;SDS011;24079;51.824;4.682;2024-01-15T02:36:21;18.15;;;2.17;;
37997;SDS011;24079;51.824;4.682;2024-01-15T02:38:46;14.55;;;1.80;;
37997;SDS011;24079;51.824;4.682;2024-01-15T02:41:12;11.38;;;1.83;;
37997;SDS011;24079;51.824;4.682;2024-01-15T02:43:40;7.78;;;1.40;;
37997;SDS011;24079;51.824;4.682;2024-01-15T02:46:06;14.68;;;1.85;;
37997;SDS011;24079;51.824;4.682;2024-01-15T02:48:32;10.13;;;1.52;;
37997;SDS011;24079;51.824;4.682;2024-01-15T02:51:00;12.48;;;1.75;;
37997;SDS011;24079;51.824;4.682;2024-01-15T02:53:27;17.55;;;1.95;;
37997;SDS011;24079;51.824;4.682;2024-01-15T02:55:53;17.58;;;1.88;;
37997;SDS011;24079;51.824;4.682;2024-01-15T02:58:19;11.75;;;1.63;;
37997;SDS011;24079;51.824;4.682;2024-01-15T03:00:46;16.67;;;1.83;;
37997;SDS011;24079;51.824;4.682;2024-01-15T03:03:12;18.10;;;2.35;;
37997;SDS011;24079;51.824;4.682;2024-01-15T03:05:38;12.18;;;1.13;;
37997;SDS011;24079;51.824;4.682;2024-01-15T03:08:04;9.25;;;1.75;;
37997;SDS011;24079;51.824;4.682;2024-01-15T03:10:30;11.52;;;1.60;;
37997;SDS011;24079;51.824;4.682;2024-01-15T03:12:57;10.57;;;1.40;;
37997;SDS011;24079;51.824;4.682;2024-01-15T03:15:23;10.93;;;2.38;;
37997;SDS011;24079;51.824;4.682;2024-01-15T03:17:49;12.23;;;1.50;;
37997;SDS011;24079;51.824;4.682;2024-01-15T03:20:15;10.50;;;1.33;;
37997;SDS011;24079;51.824;4.682;2024-01-15T03:22:41;15.52;;;1.65;;
37997;SDS011;24079;51.824;4.682;2024-01-15T03:25:07;9.57;;;1.45;;
37997;SDS011;24079;51.824;4.682;2024-01-15T03:27:33;10.60;;;1.77;;
37997;SDS011;24079;51.824;4.682;2024-01-15T03:29:59;8.35;;;1.20;;
37997;SDS011;24079;51.824;4.682;2024-01-15T03:32:25;12.02;;;1.45;;
37997;SDS011;24079;51.824;4.682;2024-01-15T03:34:51;5.03;;;0.95;;
37997;SDS011;24079;51.824;4.682;2024-01-15T03:37:17;8.77;;;1.30;;
37997;SDS011;24079;51.824;4.682;2024-01-15T03:39:43;6.30;;;1.50;;
37997;SDS011;24079;51.824;4.682;2024-01-15T03:42:09;8.88;;;1.27;;
37997;SDS011;24079;51.824;4.682;2024-01-15T03:44:35;8.25;;;1.10;;
37997;SDS011;24079;51.824;4.682;2024-01-15T03:47:01;7.43;;;1.17;;
37997;SDS011;24079;51.824;4.682;2024-01-15T03:49:27;8.63;;;1.02;;
37997;SDS011;24079;51.824;4.682;2024-01-15T03:51:53;9.18;;;1.10;;
37997;SDS011;24079;51.824;4.682;2024-01-15T03:54:19;8.38;;;1.23;;
37997;SDS011;24079;51.824;4.682;2024-01-15T03:56:45;9.30;;;1.10;;
37997;SDS011;24079;51.824;4.682;2024-01-15T03:59:11;8.38;;;1.58;;
37997;SDS011;24079;51.824;4.682;2024-01-15T04:01:37;9.68;;;1.08;;
37997;SDS011;24079;51.824;4.682;2024-01-15T04:04:03;4.70;;;0.88;;
37997;SDS011;24079;51.824;4.682;2024-01-15T04:06:29;3.35;;;0.77;;
37997;SDS011;24079;51.824;4.682;2024-01-15T04:08:55;6.03;;;1.10;;
37997;SDS011;24079;51.824;4.682;2024-01-15T04:11:21;4.20;;;0.82;;
37997;SDS011;24079;51.824;4.682;2024-01-15T04:13:47;5.10;;;0.80;;
37997;SDS011;24079;51.824;4.682;2024-01-15T04:16:16;6.22;;;1.27;;
37997;SDS011;24079;51.824;4.682;2024-01-15T04:18:42;9.68;;;1.02;;
37997;SDS011;24079;51.824;4.682;2024-01-15T04:21:08;4.15;;;0.65;;
37997;SDS011;24079;51.824;4.682;2024-01-15T04:23:34;3.80;;;0.75;;
37997;SDS011;24079;51.824;4.682;2024-01-15T04:26:01;7.85;;;1.10;;
37997;SDS011;24079;51.824;4.682;2024-01-15T04:28:27;8.25;;;1.10;;
37997;SDS011;24079;51.824;4.682;2024-01-15T04:30:53;7.88;;;0.98;;
37997;SDS011;24079;51.824;4.682;2024-01-15T04:33:19;12.30;;;1.25;;
37997;SDS011;24079;51.824;4.682;2024-01-15T04:35:45;8.30;;;1.33;;
37997;SDS011;24079;51.824;4.682;2024-01-15T04:38:11;5.65;;;0.95;;
37997;SDS011;24079;51.824;4.682;2024-01-15T04:40:37;9.95;;;1.13;;
37997;SDS011;24079;51.824;4.682;2024-01-15T04:43:03;8.43;;;1.20;;
37997;SDS011;24079;51.824;4.682;2024-01-15T04:45:29;8.85;;;1.20;;
37997;SDS011;24079;51.824;4.682;2024-01-15T04:47:55;6.28;;;0.90;;
37997;SDS011;24079;51.824;4.682;2024-01-15T04:50:22;6.90;;;0.60;;
37997;SDS011;24079;51.824;4.682;2024-01-15T04:52:49;4.90;;;0.73;;
37997;SDS011;24079;51.824;4.682;2024-01-15T04:55:15;2.58;;;0.77;;
37997;SDS011;24079;51.824;4.682;2024-01-15T04:57:41;1.17;;;0.47;;
37997;SDS011;24079;51.824;4.682;2024-01-15T05:00:08;8.52;;;1.48;;
37997;SDS011;24079;51.824;4.682;2024-01-15T05:09:06;2.47;;;0.50;;
37997;SDS011;24079;51.824;4.682;2024-01-15T05:11:32;4.07;;;0.80;;
